Terminal Aerodrome Forecast
Issued by NWS Caribou, ME

Home | Current Version | Previous Version | Text Only | Print | Product List | Glossary On
Versions: 1 2 3 4 5 6 7 8 9 10 11 12 13 14 15 16
000
FTUS41 KCAR 231732
TAFCAR
TAF
KCAR 231732Z 2318/2418 17011KT P6SM VCSH OVC040
     FM232000 17010KT 5SM -SHRA OVC015
      TEMPO 2320/2324 3SM -RA BR BKN008 OVC012
     FM240000 16009KT 3SM -RA BR OVC008
     FM240600 17009KT 3SM -SHRA BR OVC003
     FM241100 20005KT P6SM OVC005
     FM241400 28008KT P6SM BKN015=

USA.gov is the U.S. government's official web portal to all federal, state and local government web resources and services.